createdAt,value
2019-05-17T00:00:10.231Z,8.70
2019-05-17T00:00:47.496Z,8.37
2019-05-17T00:01:26.873Z,10.00
2019-05-17T00:02:02.137Z,9.33
2019-05-17T00:02:38.089Z,13.73
2019-05-17T00:03:16.892Z,9.13
2019-05-17T00:03:52.346Z,8.73
2019-05-17T00:04:28.452Z,8.63
2019-05-17T00:05:06.939Z,9.07
2019-05-17T00:05:43.546Z,8.93
2019-05-17T00:06:19.571Z,8.47
2019-05-17T00:06:57.054Z,8.10
2019-05-17T00:07:32.928Z,8.47
2019-05-17T00:08:08.951Z,9.23
2019-05-17T00:08:47.306Z,8.67
2019-05-17T00:09:23.487Z,8.30
2019-05-17T00:09:59.171Z,8.67
2019-05-17T00:10:37.622Z,7.73
2019-05-17T00:11:13.086Z,9.27
2019-05-17T00:11:48.920Z,8.47
2019-05-17T00:12:27.139Z,9.27
2019-05-17T00:13:03.253Z,8.27
2019-05-17T00:13:39.239Z,8.70
2019-05-17T00:14:16.778Z,9.40
2019-05-17T00:14:53.331Z,8.03
2019-05-17T00:15:29.531Z,9.37
2019-05-17T00:16:07.259Z,8.73
2019-05-17T00:16:43.238Z,8.77
2019-05-17T00:17:18.893Z,9.67
2019-05-17T00:17:56.967Z,8.97
2019-05-17T00:18:32.516Z,9.10
2019-05-17T00:19:08.159Z,8.50
2019-05-17T00:19:46.361Z,8.90
2019-05-17T00:20:22.098Z,9.63
2019-05-17T00:20:58.896Z,8.90
2019-05-17T00:21:36.917Z,9.00
2019-05-17T00:22:12.987Z,8.40
2019-05-17T00:22:48.608Z,9.73
2019-05-17T00:23:26.732Z,9.33
2019-05-17T00:24:02.485Z,9.47
2019-05-17T00:24:38.223Z,9.20
2019-05-17T00:25:16.605Z,8.40
2019-05-17T00:25:52.661Z,7.87
2019-05-17T00:26:28.292Z,9.80
2019-05-17T00:27:06.561Z,8.77
2019-05-17T00:27:41.956Z,9.23
2019-05-17T00:28:17.892Z,8.77
2019-05-17T00:28:56.153Z,9.20
2019-05-17T00:29:31.861Z,8.47
2019-05-17T00:30:09.443Z,9.23
2019-05-17T00:30:46.530Z,8.83
2019-05-17T00:31:22.507Z,9.40
2019-05-17T00:31:58.182Z,8.73
2019-05-17T00:32:36.736Z,9.27
2019-05-17T00:33:12.651Z,9.73
2019-05-17T00:33:48.265Z,9.50
2019-05-17T00:34:26.908Z,8.60
2019-05-17T00:35:02.868Z,9.67
2019-05-17T00:35:38.550Z,9.60
2019-05-17T00:36:14.540Z,9.07
2019-05-17T00:36:50.343Z,9.57
2019-05-17T00:37:26.496Z,9.10
2019-05-17T00:38:02.688Z,9.07
2019-05-17T00:38:48.208Z,8.80
2019-05-17T00:39:16.710Z,9.07
2019-05-17T00:39:52.908Z,9.60
2019-05-17T00:40:29.272Z,9.90
2019-05-17T00:41:06.921Z,9.77
2019-05-17T00:41:42.609Z,9.80
2019-05-17T00:42:18.775Z,9.73
2019-05-17T00:42:54.467Z,9.97
2019-05-17T00:43:30.954Z,9.23
2019-05-17T00:44:07.140Z,9.87
2019-05-17T00:44:43.174Z,9.67
2019-05-17T00:45:20.391Z,9.83
2019-05-17T00:45:57.489Z,10.30
2019-05-17T00:46:33.307Z,10.77
2019-05-17T00:47:09.652Z,10.50
2019-05-17T00:47:46.812Z,9.83
2019-05-17T00:48:22.847Z,9.23
2019-05-17T00:48:59.385Z,9.93
2019-05-17T00:49:37.208Z,11.67
2019-05-17T00:50:13.501Z,9.97
2019-05-17T00:50:53.653Z,11.13
2019-05-17T00:51:28.112Z,10.40
2019-05-17T00:52:04.088Z,10.73
2019-05-17T00:52:40.077Z,10.23
2019-05-17T00:53:16.400Z,10.03
2019-05-17T00:53:52.661Z,9.83
2019-05-17T00:54:29.216Z,10.50
2019-05-17T00:55:06.721Z,10.97
2019-05-17T00:55:42.894Z,10.40
2019-05-17T00:56:18.897Z,10.50
2019-05-17T00:56:56.674Z,9.70
2019-05-17T00:57:32.536Z,10.37
2019-05-17T00:58:08.543Z,10.43
2019-05-17T00:58:47.586Z,9.67
2019-05-17T00:59:23.294Z,10.83
2019-05-17T00:59:59.360Z,11.23
2019-05-17T01:00:37.719Z,11.10
2019-05-17T01:01:12.645Z,10.07
2019-05-17T01:01:48.650Z,11.33
2019-05-17T01:02:26.859Z,11.13
2019-05-17T01:03:02.177Z,9.77
2019-05-17T01:03:38.191Z,9.97
2019-05-17T01:04:17.108Z,10.20
2019-05-17T01:04:52.654Z,10.10
2019-05-17T01:05:28.733Z,10.40
2019-05-17T01:06:06.328Z,10.63
2019-05-17T01:06:42.454Z,10.50
2019-05-17T01:07:18.460Z,10.60
2019-05-17T01:07:54.315Z,10.90
2019-05-17T01:08:30.346Z,10.40
2019-05-17T01:09:08.184Z,10.93
2019-05-17T01:09:47.124Z,10.33
2019-05-17T01:10:22.101Z,10.93
2019-05-17T01:10:58.658Z,10.67
2019-05-17T01:11:36.622Z,10.30
2019-05-17T01:12:12.902Z,10.13
2019-05-17T01:12:49.262Z,10.43
2019-05-17T01:13:26.683Z,10.63
2019-05-17T01:14:02.639Z,10.70
2019-05-17T01:14:39.150Z,10.10
2019-05-17T01:15:16.736Z,10.67
2019-05-17T01:15:52.587Z,10.77
2019-05-17T01:16:28.710Z,11.03
2019-05-17T01:17:07.000Z,10.13
2019-05-17T01:17:42.417Z,10.87
2019-05-17T01:18:18.802Z,11.47
2019-05-17T01:18:57.188Z,10.20
2019-05-17T01:19:32.413Z,10.47
2019-05-17T01:20:09.867Z,10.70
2019-05-17T01:20:47.475Z,11.03
2019-05-17T01:21:23.666Z,10.97
2019-05-17T01:22:00.155Z,10.13
2019-05-17T01:22:36.682Z,10.70
2019-05-17T01:23:12.651Z,11.20
2019-05-17T01:23:48.972Z,10.73
2019-05-17T01:24:27.307Z,11.00
2019-05-17T01:25:03.094Z,10.80
2019-05-17T01:25:39.568Z,10.40
2019-05-17T01:26:18.268Z,11.03
2019-05-17T01:26:53.292Z,10.83
2019-05-17T01:27:29.771Z,10.80
2019-05-17T01:28:07.593Z,10.60
2019-05-17T01:28:43.723Z,10.80
2019-05-17T01:29:19.733Z,10.13
2019-05-17T01:29:57.292Z,11.70
2019-05-17T01:30:33.138Z,11.13
2019-05-17T01:31:09.192Z,11.17
2019-05-17T01:31:46.540Z,10.80
2019-05-17T01:32:22.459Z,11.57
2019-05-17T01:32:58.575Z,10.87
2019-05-17T01:33:36.744Z,11.00
2019-05-17T01:34:12.560Z,11.53
2019-05-17T01:34:48.684Z,10.57
2019-05-17T01:35:26.591Z,10.27
2019-05-17T01:36:02.581Z,11.03
2019-05-17T01:36:38.562Z,11.20
2019-05-17T01:37:16.995Z,10.43
2019-05-17T01:37:52.530Z,11.10
2019-05-17T01:38:28.741Z,12.20
2019-05-17T01:39:17.040Z,11.23
2019-05-17T01:39:43.227Z,11.50
2019-05-17T01:40:19.261Z,10.97
2019-05-17T01:40:56.425Z,10.93
2019-05-17T01:41:32.815Z,12.17
2019-05-17T01:42:08.815Z,11.20
2019-05-17T01:42:46.624Z,11.53
2019-05-17T01:43:21.951Z,11.67
2019-05-17T01:43:58.301Z,11.70
2019-05-17T01:44:34.148Z,11.40
2019-05-17T01:45:13.359Z,11.93
2019-05-17T01:45:49.447Z,11.20
2019-05-17T01:46:27.614Z,10.93
2019-05-17T01:47:03.311Z,11.27
2019-05-17T01:47:39.340Z,11.47
2019-05-17T01:48:16.373Z,11.60
2019-05-17T01:48:52.579Z,11.20
2019-05-17T01:49:28.697Z,11.43
2019-05-17T01:50:06.822Z,11.63
2019-05-17T01:50:42.358Z,11.43
2019-05-17T01:51:18.643Z,11.43
2019-05-17T01:51:56.666Z,10.97
2019-05-17T01:52:32.237Z,12.40
2019-05-17T01:53:08.350Z,12.53
2019-05-17T01:53:46.838Z,12.53
2019-05-17T01:54:22.870Z,12.70
2019-05-17T01:54:59.095Z,13.17
2019-05-17T01:55:37.195Z,12.47
2019-05-17T01:56:12.341Z,13.47
2019-05-17T01:56:48.410Z,12.87
2019-05-17T01:57:24.618Z,12.57
2019-05-17T01:58:00.660Z,11.80
2019-05-17T01:58:36.872Z,12.17
2019-05-17T01:59:12.715Z,12.77
2019-05-17T01:59:48.384Z,11.93
2019-05-17T02:00:26.544Z,13.13
2019-05-17T02:01:02.640Z,12.03
2019-05-17T02:01:38.676Z,12.33
2019-05-17T02:02:17.465Z,11.83
2019-05-17T02:02:54.346Z,12.60
2019-05-17T02:03:30.008Z,14.63
2019-05-17T02:04:06.581Z,13.93
2019-05-17T02:04:42.574Z,11.90
2019-05-17T02:05:18.716Z,14.07
2019-05-17T02:05:56.615Z,12.43
2019-05-17T02:06:33.062Z,13.40
2019-05-17T02:07:09.125Z,13.63
2019-05-17T02:07:46.555Z,13.80
2019-05-17T02:08:23.023Z,12.67
2019-05-17T02:08:59.171Z,12.93
2019-05-17T02:09:41.204Z,12.67
2019-05-17T02:10:13.750Z,12.70
2019-05-17T02:10:49.473Z,13.57
2019-05-17T02:11:26.916Z,12.13
2019-05-17T02:12:03.183Z,13.90
2019-05-17T02:12:41.890Z,13.97
2019-05-17T02:13:18.237Z,13.47
2019-05-17T02:13:56.172Z,13.13
2019-05-17T02:14:31.960Z,13.57
2019-05-17T02:15:08.858Z,13.87
2019-05-17T02:15:47.017Z,14.13
2019-05-17T02:16:22.698Z,15.13
2019-05-17T02:16:59.145Z,13.43
2019-05-17T02:17:37.182Z,13.30
2019-05-17T02:18:12.438Z,12.90
2019-05-17T02:18:48.538Z,13.10
2019-05-17T02:19:26.563Z,13.77
2019-05-17T02:20:02.364Z,13.93
2019-05-17T02:20:38.779Z,13.13
2019-05-17T02:21:16.779Z,12.90
2019-05-17T02:21:52.069Z,13.80
2019-05-17T02:22:28.115Z,13.37
2019-05-17T02:23:04.064Z,13.57
2019-05-17T02:23:39.850Z,13.97
2019-05-17T02:24:16.936Z,13.77
2019-05-17T02:24:53.456Z,13.87
2019-05-17T02:25:29.147Z,14.63
2019-05-17T02:26:06.706Z,12.93
2019-05-17T02:26:42.641Z,14.90
2019-05-17T02:27:21.411Z,12.97
2019-05-17T02:27:56.808Z,14.70
2019-05-17T02:28:32.746Z,16.37
2019-05-17T02:29:08.726Z,13.70
2019-05-17T02:29:44.742Z,13.80
2019-05-17T02:30:23.345Z,13.90
2019-05-17T02:30:58.882Z,14.20
2019-05-17T02:31:35.673Z,13.97
2019-05-17T02:32:12.851Z,14.13
2019-05-17T02:32:53.850Z,13.80
2019-05-17T02:33:28.431Z,13.63
2019-05-17T02:34:04.760Z,15.10
2019-05-17T02:34:42.995Z,14.17
2019-05-17T02:35:18.561Z,14.50
2019-05-17T02:35:54.765Z,13.40
2019-05-17T02:36:33.236Z,15.17
2019-05-17T02:37:08.184Z,15.13
2019-05-17T02:37:44.238Z,13.73
2019-05-17T02:38:22.446Z,13.87
2019-05-17T02:38:58.187Z,14.47
2019-05-17T02:39:51.857Z,14.13
2019-05-17T02:40:14.677Z,13.93
2019-05-17T02:40:53.249Z,14.30
2019-05-17T02:41:28.178Z,15.03
2019-05-17T02:42:03.871Z,14.83
2019-05-17T02:42:42.972Z,14.57
2019-05-17T02:43:18.092Z,15.00
2019-05-17T02:43:53.736Z,14.10
2019-05-17T02:44:33.169Z,15.33
2019-05-17T02:45:08.070Z,16.03
2019-05-17T02:45:43.737Z,14.67
2019-05-17T02:46:23.028Z,14.57
2019-05-17T02:46:57.772Z,15.10
2019-05-17T02:47:34.114Z,14.97
2019-05-17T02:48:13.154Z,14.50
2019-05-17T02:48:48.091Z,16.20
2019-05-17T02:49:24.231Z,15.33
2019-05-17T02:50:00.621Z,14.60
2019-05-17T02:50:36.447Z,14.43
2019-05-17T02:51:13.165Z,14.53
2019-05-17T02:51:52.560Z,14.20
2019-05-17T02:52:27.667Z,14.13
2019-05-17T02:53:04.855Z,13.90
2019-05-17T02:53:42.964Z,16.77
2019-05-17T02:54:19.346Z,14.10
2019-05-17T02:54:55.000Z,15.20
2019-05-17T02:55:32.387Z,14.53
2019-05-17T02:56:08.466Z,14.33
2019-05-17T02:56:44.124Z,14.43
2019-05-17T02:57:23.323Z,14.90
2019-05-17T02:57:58.131Z,15.13
2019-05-17T02:58:33.770Z,14.13
2019-05-17T02:59:13.141Z,14.77
2019-05-17T02:59:47.296Z,15.43
2019-05-17T03:00:24.176Z,15.77
2019-05-17T03:01:03.475Z,14.70
2019-05-17T03:01:38.504Z,14.63
2019-05-17T03:02:14.464Z,15.17
2019-05-17T03:02:53.679Z,14.17
2019-05-17T03:03:29.115Z,16.23
2019-05-17T03:04:05.053Z,14.50
2019-05-17T03:04:43.292Z,15.40
2019-05-17T03:05:23.259Z,14.63
2019-05-17T03:05:58.207Z,14.90
2019-05-17T03:06:34.543Z,14.23
2019-05-17T03:07:13.567Z,15.13
2019-05-17T03:07:47.878Z,14.87
2019-05-17T03:08:24.385Z,14.90
2019-05-17T03:09:03.235Z,14.60
2019-05-17T03:09:37.844Z,14.17
2019-05-17T03:10:23.876Z,15.47
2019-05-17T03:10:53.660Z,17.27
2019-05-17T03:11:33.030Z,14.57
2019-05-17T03:12:08.112Z,15.20
2019-05-17T03:12:44.885Z,13.80
2019-05-17T03:13:23.461Z,15.07
2019-05-17T03:13:58.812Z,14.40
2019-05-17T03:14:34.631Z,15.30
2019-05-17T03:15:13.029Z,13.80
2019-05-17T03:15:48.434Z,15.07
2019-05-17T03:16:24.318Z,14.87
2019-05-17T03:17:02.911Z,16.10
2019-05-17T03:17:37.775Z,15.63
2019-05-17T03:18:13.696Z,15.27
2019-05-17T03:18:49.314Z,14.37
2019-05-17T03:19:25.397Z,15.23
2019-05-17T03:20:04.015Z,14.43
2019-05-17T03:20:38.547Z,15.00
2019-05-17T03:21:14.564Z,15.80
2019-05-17T03:21:53.305Z,14.60
2019-05-17T03:22:28.097Z,15.40
2019-05-17T03:23:04.442Z,14.93
2019-05-17T03:23:43.290Z,15.80
2019-05-17T03:24:17.864Z,15.03
2019-05-17T03:24:53.864Z,15.33
2019-05-17T03:25:33.003Z,15.57
2019-05-17T03:26:07.133Z,15.87
2019-05-17T03:26:43.356Z,14.57
2019-05-17T03:27:19.359Z,14.97
2019-05-17T03:27:55.088Z,14.73
2019-05-17T03:28:33.721Z,15.00
2019-05-17T03:29:08.645Z,14.80
2019-05-17T03:29:44.291Z,15.03
2019-05-17T03:30:25.326Z,14.90
2019-05-17T03:30:58.336Z,14.47
2019-05-17T03:31:41.920Z,15.43
2019-05-17T03:32:17.397Z,14.60
2019-05-17T03:32:55.479Z,15.40
2019-05-17T03:33:28.281Z,15.30
2019-05-17T03:34:06.310Z,15.47
2019-05-17T03:34:44.922Z,15.60
2019-05-17T03:35:25.887Z,15.87
2019-05-17T03:36:05.419Z,16.03
2019-05-17T03:36:37.325Z,17.30
2019-05-17T03:37:15.934Z,14.83
2019-05-17T03:37:53.187Z,16.10
2019-05-17T03:38:32.350Z,15.03
2019-05-17T03:39:07.654Z,15.13
2019-05-17T03:39:44.040Z,14.47
2019-05-17T03:40:36.307Z,15.13
2019-05-17T03:41:09.474Z,15.80
2019-05-17T03:41:35.097Z,15.53
2019-05-17T03:42:13.223Z,14.27
2019-05-17T03:42:48.627Z,18.37
2019-05-17T03:43:25.768Z,15.03
2019-05-17T03:44:03.225Z,15.50
2019-05-17T03:44:39.322Z,14.83
2019-05-17T03:45:16.025Z,15.77
2019-05-17T03:45:53.329Z,15.77
2019-05-17T03:46:29.606Z,15.23
2019-05-17T03:47:05.987Z,15.57
2019-05-17T03:47:44.647Z,16.00
2019-05-17T03:48:22.159Z,15.13
2019-05-17T03:48:57.695Z,15.40
2019-05-17T03:49:33.867Z,14.90
2019-05-17T03:50:13.091Z,15.77
2019-05-17T03:50:47.745Z,15.33
2019-05-17T03:51:23.615Z,15.70
2019-05-17T03:52:02.455Z,15.50
2019-05-17T03:52:37.516Z,18.43
2019-05-17T03:53:13.731Z,15.00
2019-05-17T03:53:49.351Z,14.43
2019-05-17T03:54:25.818Z,14.67
2019-05-17T03:55:04.077Z,14.93
2019-05-17T03:55:39.334Z,15.20
2019-05-17T03:56:15.645Z,13.73
2019-05-17T03:56:53.213Z,13.77
2019-05-17T03:57:29.294Z,14.83
2019-05-17T03:58:05.337Z,13.70
2019-05-17T03:58:43.398Z,13.97
2019-05-17T03:59:18.469Z,13.70
2019-05-17T03:59:54.489Z,13.50
2019-05-17T04:00:30.786Z,14.13
2019-05-17T04:01:06.553Z,12.83
2019-05-17T04:01:43.662Z,13.90
2019-05-17T04:02:22.832Z,13.23
2019-05-17T04:02:57.169Z,12.87
2019-05-17T04:03:35.498Z,13.23
2019-05-17T04:04:13.383Z,13.93
2019-05-17T04:04:47.984Z,14.40
2019-05-17T04:05:24.090Z,13.23
2019-05-17T04:05:59.937Z,13.63
2019-05-17T04:06:36.534Z,13.40
2019-05-17T04:07:12.954Z,13.30
2019-05-17T04:07:48.893Z,14.30
2019-05-17T04:08:24.830Z,12.83
2019-05-17T04:09:03.701Z,13.20
2019-05-17T04:09:38.798Z,13.70
2019-05-17T04:10:15.483Z,12.67
2019-05-17T04:10:52.971Z,13.37
2019-05-17T04:11:35.275Z,12.50
2019-05-17T04:12:06.856Z,12.80
2019-05-17T04:12:44.407Z,12.97
2019-05-17T04:13:23.148Z,13.00
2019-05-17T04:13:58.546Z,13.30
2019-05-17T04:14:34.545Z,12.00
2019-05-17T04:15:13.388Z,12.33
2019-05-17T04:15:48.987Z,12.47
2019-05-17T04:16:25.041Z,12.70
2019-05-17T04:17:03.039Z,11.77
2019-05-17T04:17:38.637Z,12.57
2019-05-17T04:18:14.762Z,12.80
2019-05-17T04:18:53.288Z,13.70
2019-05-17T04:19:28.251Z,12.77
2019-05-17T04:20:04.296Z,12.43
2019-05-17T04:20:43.060Z,12.47
2019-05-17T04:21:17.545Z,12.93
2019-05-17T04:21:54.001Z,13.03
2019-05-17T04:22:33.056Z,12.50
2019-05-17T04:23:08.072Z,13.87
2019-05-17T04:23:44.372Z,12.50
2019-05-17T04:24:22.916Z,12.47
2019-05-17T04:24:57.963Z,12.17
2019-05-17T04:25:34.376Z,12.23
2019-05-17T04:26:13.270Z,13.13
2019-05-17T04:26:47.905Z,12.07
2019-05-17T04:27:23.954Z,11.80
2019-05-17T04:28:02.782Z,11.97
2019-05-17T04:28:37.646Z,12.47
2019-05-17T04:29:13.920Z,12.33
2019-05-17T04:29:53.018Z,12.20
2019-05-17T04:30:27.261Z,12.83
2019-05-17T04:31:03.525Z,12.00
2019-05-17T04:31:43.123Z,12.10
2019-05-17T04:32:17.034Z,12.27
2019-05-17T04:32:53.402Z,12.17
2019-05-17T04:33:29.837Z,13.40
2019-05-17T04:34:05.560Z,11.93
2019-05-17T04:34:43.738Z,12.37
2019-05-17T04:35:19.236Z,12.07
2019-05-17T04:35:55.289Z,11.33
2019-05-17T04:36:32.328Z,13.07
2019-05-17T04:37:09.011Z,11.67
2019-05-17T04:37:45.223Z,12.77
2019-05-17T04:38:23.599Z,11.60
2019-05-17T04:39:02.212Z,12.30
2019-05-17T04:39:37.108Z,12.63
2019-05-17T04:40:14.541Z,12.50
2019-05-17T04:40:53.454Z,13.03
2019-05-17T04:41:44.170Z,10.83
2019-05-17T04:42:05.881Z,11.57
2019-05-17T04:42:43.835Z,12.63
2019-05-17T04:43:19.077Z,15.37
2019-05-17T04:43:56.155Z,12.57
2019-05-17T04:44:32.381Z,11.47
2019-05-17T04:45:08.387Z,12.10
2019-05-17T04:45:44.395Z,12.87
2019-05-17T04:46:23.645Z,12.30
2019-05-17T04:46:58.022Z,11.73
2019-05-17T04:47:34.433Z,12.43
2019-05-17T04:48:13.218Z,11.97
2019-05-17T04:48:48.429Z,11.60
2019-05-17T04:49:24.540Z,12.20
2019-05-17T04:50:03.994Z,12.07
2019-05-17T04:50:38.561Z,12.73
2019-05-17T04:51:14.984Z,13.60
2019-05-17T04:51:52.602Z,13.47
2019-05-17T04:52:28.761Z,13.30
2019-05-17T04:53:04.882Z,12.20
2019-05-17T04:53:43.019Z,13.60
2019-05-17T04:54:18.934Z,12.40
2019-05-17T04:54:55.324Z,12.53
2019-05-17T04:55:34.341Z,13.53
2019-05-17T04:56:09.058Z,13.60
2019-05-17T04:56:45.066Z,13.03
2019-05-17T04:57:23.189Z,13.50
2019-05-17T04:57:59.439Z,14.13
2019-05-17T04:58:35.434Z,13.47
2019-05-17T04:59:13.830Z,14.63
2019-05-17T04:59:48.906Z,14.30
2019-05-17T05:00:25.057Z,13.73
2019-05-17T05:01:03.961Z,14.57
2019-05-17T05:01:38.638Z,14.23
2019-05-17T05:02:14.671Z,15.07
2019-05-17T05:02:52.703Z,14.97
2019-05-17T05:03:28.444Z,14.50
2019-05-17T05:04:04.500Z,14.57
2019-05-17T05:04:43.499Z,14.33
2019-05-17T05:05:18.158Z,13.83
2019-05-17T05:05:54.754Z,13.93
2019-05-17T05:06:32.948Z,14.87
2019-05-17T05:07:08.429Z,15.10
2019-05-17T05:07:44.435Z,15.33
2019-05-17T05:08:22.468Z,15.03
2019-05-17T05:08:57.687Z,14.57
2019-05-17T05:09:34.105Z,15.47
2019-05-17T05:10:13.448Z,14.90
2019-05-17T05:10:48.318Z,15.57
2019-05-17T05:11:24.818Z,15.23
2019-05-17T05:12:05.835Z,15.70
2019-05-17T05:12:39.333Z,15.60
2019-05-17T05:13:15.487Z,15.23
2019-05-17T05:13:53.102Z,14.53
2019-05-17T05:14:28.832Z,14.37
2019-05-17T05:15:05.080Z,15.60
2019-05-17T05:15:44.028Z,15.70
2019-05-17T05:16:22.445Z,14.60
2019-05-17T05:16:57.723Z,15.80
2019-05-17T05:17:33.664Z,15.00
2019-05-17T05:18:12.902Z,15.50
2019-05-17T05:18:47.386Z,15.27
2019-05-17T05:19:23.208Z,15.70
2019-05-17T05:19:58.915Z,14.83
2019-05-17T05:20:34.949Z,15.23
2019-05-17T05:21:12.241Z,15.67
2019-05-17T05:21:48.772Z,15.20
2019-05-17T05:22:24.842Z,15.20
2019-05-17T05:23:02.647Z,15.90
2019-05-17T05:23:38.595Z,15.97
2019-05-17T05:24:14.692Z,15.73
2019-05-17T05:24:52.503Z,15.73
2019-05-17T05:25:28.750Z,15.70
2019-05-17T05:26:05.490Z,14.10
2019-05-17T05:26:42.511Z,14.17
2019-05-17T05:27:18.934Z,17.60
2019-05-17T05:27:55.009Z,15.70
2019-05-17T05:28:31.790Z,14.43
2019-05-17T05:29:07.832Z,15.33
2019-05-17T05:29:43.821Z,15.30
2019-05-17T05:30:19.636Z,15.17
2019-05-17T05:30:55.332Z,16.13
2019-05-17T05:31:32.254Z,18.03
2019-05-17T05:32:08.179Z,15.77
2019-05-17T05:32:44.196Z,15.37
2019-05-17T05:33:22.172Z,16.03
2019-05-17T05:33:57.916Z,16.50
2019-05-17T05:34:33.674Z,15.67
2019-05-17T05:35:12.415Z,15.03
2019-05-17T05:35:48.629Z,15.87
2019-05-17T05:36:24.677Z,15.07
2019-05-17T05:37:02.179Z,15.77
2019-05-17T05:37:38.192Z,15.23
2019-05-17T05:38:14.291Z,14.83
2019-05-17T05:38:51.567Z,15.77
2019-05-17T05:39:27.619Z,15.53
2019-05-17T05:40:03.827Z,15.03
2019-05-17T05:40:41.406Z,15.83
2019-05-17T05:41:17.714Z,15.07
2019-05-17T05:42:06.379Z,16.13
2019-05-17T05:42:31.535Z,16.13
2019-05-17T05:43:07.652Z,15.20
2019-05-17T05:43:43.369Z,17.00
2019-05-17T05:44:21.502Z,15.50
2019-05-17T05:44:57.523Z,16.57
2019-05-17T05:45:33.581Z,15.77
2019-05-17T05:46:11.676Z,15.73
2019-05-17T05:46:47.957Z,15.37
2019-05-17T05:47:23.649Z,16.13
2019-05-17T05:48:01.791Z,15.43
2019-05-17T05:48:38.281Z,16.97
2019-05-17T05:49:13.926Z,15.43
2019-05-17T05:49:51.920Z,15.70
2019-05-17T05:50:27.561Z,16.57
2019-05-17T05:51:04.918Z,16.37
2019-05-17T05:51:42.436Z,16.47
2019-05-17T05:52:18.495Z,15.50
2019-05-17T05:52:55.617Z,17.17
2019-05-17T05:53:32.569Z,16.00
2019-05-17T05:54:08.539Z,16.83
2019-05-17T05:54:44.563Z,16.93
2019-05-17T05:55:23.422Z,16.47
2019-05-17T05:55:58.916Z,16.20
2019-05-17T05:56:34.696Z,17.13
2019-05-17T05:57:12.594Z,16.97
2019-05-17T05:57:48.700Z,17.77
2019-05-17T05:58:24.826Z,18.73
2019-05-17T05:59:02.965Z,17.83
2019-05-17T05:59:38.497Z,17.00
2019-05-17T06:00:16.453Z,16.77
2019-05-17T06:00:53.289Z,17.07
2019-05-17T06:01:29.652Z,16.60
2019-05-17T06:02:05.778Z,17.13
2019-05-17T06:02:42.120Z,17.03
2019-05-17T06:03:18.083Z,17.53
2019-05-17T06:03:54.217Z,17.57
2019-05-17T06:04:31.879Z,17.70
2019-05-17T06:05:08.061Z,18.60
2019-05-17T06:05:43.817Z,18.07
2019-05-17T06:06:21.557Z,18.17
2019-05-17T06:06:57.926Z,18.47
2019-05-17T06:07:33.620Z,17.77
2019-05-17T06:08:11.949Z,18.67
2019-05-17T06:08:47.732Z,18.60
2019-05-17T06:09:23.482Z,18.10
2019-05-17T06:10:02.037Z,19.93
2019-05-17T06:10:39.455Z,19.90
2019-05-17T06:11:14.779Z,19.80
2019-05-17T06:11:51.930Z,18.47
2019-05-17T06:12:28.273Z,19.77
2019-05-17T06:13:04.470Z,18.67
2019-05-17T06:13:41.861Z,18.67
2019-05-17T06:14:17.782Z,19.20
2019-05-17T06:14:53.467Z,19.37
2019-05-17T06:15:31.937Z,20.07
2019-05-17T06:16:07.477Z,20.00
2019-05-17T06:16:43.102Z,19.27
2019-05-17T06:17:21.478Z,19.47
2019-05-17T06:17:57.220Z,20.10
2019-05-17T06:18:33.688Z,19.60
2019-05-17T06:19:11.615Z,19.70
2019-05-17T06:19:47.691Z,21.07
2019-05-17T06:20:24.367Z,19.47
2019-05-17T06:21:02.725Z,20.17
2019-05-17T06:21:38.717Z,20.23
2019-05-17T06:22:14.363Z,19.23
2019-05-17T06:22:51.833Z,20.27
2019-05-17T06:23:28.103Z,20.43
2019-05-17T06:24:03.855Z,20.77
2019-05-17T06:24:42.345Z,20.63
2019-05-17T06:25:18.122Z,19.77
2019-05-17T06:25:53.929Z,20.03
2019-05-17T06:26:31.518Z,20.63
2019-05-17T06:27:07.523Z,19.50
2019-05-17T06:27:43.257Z,19.67
2019-05-17T06:28:19.268Z,20.20
2019-05-17T06:28:55.309Z,20.45
2019-05-17T06:29:32.772Z,19.07
2019-05-17T06:30:09.385Z,19.73
2019-05-17T06:30:45.583Z,19.37
2019-05-17T06:31:21.223Z,19.97
2019-05-17T06:31:57.764Z,19.73
2019-05-17T06:32:33.953Z,27.87
2019-05-17T06:33:12.075Z,19.83
2019-05-17T06:33:48.198Z,19.83
2019-05-17T06:34:24.085Z,20.37
2019-05-17T06:35:01.890Z,20.63
2019-05-17T06:35:37.561Z,20.13
2019-05-17T06:36:13.794Z,19.27
2019-05-17T06:36:49.878Z,21.37
2019-05-17T06:37:26.542Z,20.60
2019-05-17T06:38:03.051Z,19.83
2019-05-17T06:38:38.688Z,20.23
2019-05-17T06:39:15.079Z,20.20
2019-05-17T06:39:52.665Z,19.37
2019-05-17T06:40:29.074Z,19.47
2019-05-17T06:41:05.267Z,20.20
2019-05-17T06:41:41.985Z,20.27
2019-05-17T06:42:18.191Z,20.73
2019-05-17T06:42:54.576Z,20.07
2019-05-17T06:43:32.303Z,20.67
2019-05-17T06:44:08.113Z,20.97
2019-05-17T06:44:44.126Z,21.90
2019-05-17T06:45:22.101Z,22.07
2019-05-17T06:45:58.066Z,21.10
2019-05-17T06:46:34.847Z,20.03
2019-05-17T06:47:11.939Z,19.43
2019-05-17T06:47:48.378Z,20.25
2019-05-17T06:48:24.853Z,21.43
2019-05-17T06:49:02.944Z,19.40
2019-05-17T06:49:38.165Z,19.97
2019-05-17T06:50:15.214Z,20.97
2019-05-17T06:50:51.955Z,20.77
2019-05-17T06:51:27.882Z,20.93
2019-05-17T06:52:03.949Z,20.23
2019-05-17T06:52:39.769Z,19.90
2019-05-17T06:53:15.794Z,20.70
2019-05-17T06:53:52.396Z,20.20
2019-05-17T06:54:29.138Z,19.70
2019-05-17T06:55:06.067Z,20.93
2019-05-17T06:55:42.861Z,21.53
2019-05-17T06:56:19.184Z,20.13
2019-05-17T06:56:54.906Z,20.10
2019-05-17T06:57:32.489Z,22.80
2019-05-17T06:58:08.531Z,20.30
2019-05-17T06:58:44.164Z,22.00
2019-05-17T06:59:20.647Z,20.43
2019-05-17T06:59:56.498Z,19.50
2019-05-17T07:00:32.841Z,20.85
2019-05-17T07:01:09.511Z,21.93
2019-05-17T07:01:45.446Z,21.07
2019-05-17T07:02:21.699Z,20.23
2019-05-17T07:03:00.562Z,21.97
2019-05-17T07:03:35.638Z,20.30
2019-05-17T07:04:11.309Z,21.43
2019-05-17T07:04:48.036Z,22.00
2019-05-17T07:05:29.343Z,20.73
2019-05-17T07:06:06.507Z,19.93
2019-05-17T07:06:42.544Z,21.17
2019-05-17T07:07:30.351Z,20.80
2019-05-17T07:08:05.356Z,21.00
2019-05-17T07:08:41.637Z,19.70
2019-05-17T07:09:19.519Z,21.27
2019-05-17T07:09:55.965Z,19.93
2019-05-17T07:10:32.029Z,19.27
2019-05-17T07:11:09.790Z,19.53
2019-05-17T07:11:45.602Z,21.57
2019-05-17T07:12:21.621Z,20.17
2019-05-17T07:12:59.602Z,21.10
2019-05-17T07:13:35.349Z,21.10
2019-05-17T07:14:11.746Z,19.53
2019-05-17T07:14:47.570Z,20.17
2019-05-17T07:15:23.614Z,20.17
2019-05-17T07:16:00.415Z,19.73
2019-05-17T07:16:39.594Z,19.42
2019-05-17T07:17:15.261Z,20.60
2019-05-17T07:17:51.275Z,20.27
2019-05-17T07:18:27.182Z,21.17
2019-05-17T07:19:03.631Z,20.83
2019-05-17T07:19:40.257Z,20.40
2019-05-17T07:20:16.802Z,21.33
2019-05-17T07:20:52.856Z,20.33
2019-05-17T07:21:29.727Z,20.30
2019-05-17T07:22:05.763Z,20.03
2019-05-17T07:22:41.707Z,21.43
2019-05-17T07:23:19.681Z,20.27
2019-05-17T07:23:56.262Z,20.27
2019-05-17T07:24:33.362Z,20.02
2019-05-17T07:25:10.733Z,20.73
2019-05-17T07:25:47.503Z,20.00
2019-05-17T07:26:23.813Z,21.07
2019-05-17T07:27:00.218Z,21.73
2019-05-17T07:27:41.275Z,20.47
2019-05-17T07:28:13.685Z,20.40
2019-05-17T07:28:50.298Z,21.42
2019-05-17T07:29:27.142Z,21.37
2019-05-17T07:30:02.846Z,21.55
2019-05-17T07:30:40.058Z,19.77
2019-05-17T07:31:16.141Z,20.73
2019-05-17T07:31:51.893Z,19.85
2019-05-17T07:32:29.751Z,20.87
2019-05-17T07:33:06.408Z,19.57
2019-05-17T07:33:42.349Z,20.77
2019-05-17T07:34:19.995Z,19.93
2019-05-17T07:34:56.824Z,19.52
2019-05-17T07:35:32.617Z,21.87
2019-05-17T07:36:10.206Z,21.10
2019-05-17T07:36:46.499Z,20.27
2019-05-17T07:37:22.280Z,20.32
2019-05-17T07:37:59.513Z,20.60
2019-05-17T07:38:35.520Z,21.23
2019-05-17T07:39:11.144Z,19.55
2019-05-17T07:39:57.806Z,20.93
2019-05-17T07:40:25.036Z,20.27
2019-05-17T07:41:00.708Z,20.32
2019-05-17T07:41:36.717Z,20.85
2019-05-17T07:42:13.787Z,20.35
2019-05-17T07:42:50.129Z,19.67
2019-05-17T07:43:27.013Z,20.05
2019-05-17T07:44:02.887Z,19.87
2019-05-17T07:44:40.235Z,21.62
2019-05-17T07:45:17.000Z,20.08
2019-05-17T07:45:53.461Z,21.10
2019-05-17T07:46:29.980Z,20.85
2019-05-17T07:47:06.582Z,20.55
2019-05-17T07:47:43.430Z,19.23
2019-05-17T07:48:20.070Z,20.20
2019-05-17T07:48:56.989Z,19.77
2019-05-17T07:49:33.839Z,20.60
2019-05-17T07:50:11.233Z,20.05
2019-05-17T07:50:50.196Z,19.82
2019-05-17T07:51:26.339Z,20.95
2019-05-17T07:52:02.374Z,19.37
2019-05-17T07:52:39.822Z,19.87
2019-05-17T07:53:16.073Z,20.40
2019-05-17T07:53:52.288Z,19.35